Terminal Aerodrome Forecast
Issued by NWS

Home | Current Version | Previous Version | Text Only | Print | Product List | Glossary On
Versions: 1 2 3 4 5 6 7 8 9 10 11 12 13
103
FTUS46 KEKA 242324
TAFUKI
TAF
KUKI 242324Z 2500/2524 18010KT P6SM FEW250
     FM251000 16008KT 6SM BR BKN010
     FM251700 14009KT P6SM SCT012
     FM251900 18010KT P6SM FEW250=

USA.gov is the U.S. government's official web portal to all federal, state and local government web resources and services.